createdAt,value
2019-05-23T00:00:42.586Z,0.00
2019-05-23T00:01:42.596Z,0.00
2019-05-23T00:02:42.544Z,0.00
2019-05-23T00:03:42.551Z,0.00
2019-05-23T00:04:42.555Z,0.00
2019-05-23T00:05:42.517Z,0.00
2019-05-23T00:06:42.526Z,0.00
2019-05-23T00:07:42.489Z,0.00
2019-05-23T00:08:42.499Z,0.00
2019-05-23T00:09:42.483Z,0.00
2019-05-23T00:10:42.467Z,0.00
2019-05-23T00:11:42.460Z,0.00
2019-05-23T00:12:42.450Z,0.00
2019-05-23T00:13:42.434Z,0.00
2019-05-23T00:14:42.420Z,0.00
2019-05-23T00:15:42.420Z,0.00
2019-05-23T00:16:42.426Z,0.00
2019-05-23T00:17:42.404Z,0.00
2019-05-23T00:18:42.385Z,0.00
2019-05-23T00:19:42.357Z,0.00
2019-05-23T00:20:42.352Z,0.00
2019-05-23T00:21:42.348Z,0.00
2019-05-23T00:22:42.365Z,0.00
2019-05-23T00:23:42.341Z,0.00
2019-05-23T00:24:42.304Z,0.00
2019-05-23T00:25:42.311Z,0.00
2019-05-23T00:26:42.282Z,0.00
2019-05-23T00:27:42.315Z,0.00
2019-05-23T00:28:42.271Z,0.00
2019-05-23T00:29:42.274Z,0.00
2019-05-23T00:30:42.248Z,0.00
2019-05-23T00:31:42.224Z,0.00
2019-05-23T00:32:42.251Z,0.00
2019-05-23T00:33:42.227Z,0.00
2019-05-23T00:34:42.215Z,0.00
2019-05-23T00:35:42.191Z,0.00
2019-05-23T00:36:42.189Z,0.00
2019-05-23T00:37:42.195Z,0.00
2019-05-23T00:38:42.219Z,0.00
2019-05-23T00:39:42.148Z,0.00
2019-05-23T00:40:42.157Z,0.00
2019-05-23T00:41:42.123Z,0.00
2019-05-23T00:42:42.113Z,0.00
2019-05-23T00:43:42.123Z,0.00
2019-05-23T00:44:42.103Z,0.00
2019-05-23T00:45:42.087Z,0.00
2019-05-23T00:46:42.062Z,0.00
2019-05-23T00:47:42.080Z,0.00
2019-05-23T00:48:42.055Z,0.00
2019-05-23T00:49:42.061Z,0.00
2019-05-23T00:50:42.055Z,0.00
2019-05-23T00:51:42.028Z,0.00
2019-05-23T00:52:42.012Z,0.00
2019-05-23T00:53:42.018Z,0.00
2019-05-23T00:54:42.006Z,0.00
2019-05-23T00:55:41.981Z,0.00
2019-05-23T00:56:41.959Z,0.00
2019-05-23T00:57:41.981Z,0.00
2019-05-23T00:58:41.955Z,0.00
2019-05-23T00:59:41.941Z,0.00
2019-05-23T01:00:41.959Z,0.00
2019-05-23T01:01:41.936Z,0.00
2019-05-23T01:02:43.473Z,0.00
2019-05-23T01:03:47.174Z,0.00
2019-05-23T01:04:43.429Z,0.00
2019-05-23T01:05:45.401Z,0.00
2019-05-23T01:06:42.057Z,0.00
2019-05-23T01:07:41.863Z,0.00
2019-05-23T01:08:41.859Z,0.00
2019-05-23T01:09:41.831Z,0.00
2019-05-23T01:10:41.841Z,0.00
2019-05-23T01:11:41.807Z,0.00
2019-05-23T01:12:41.806Z,0.00
2019-05-23T01:13:41.818Z,0.00
2019-05-23T01:14:41.770Z,0.00
2019-05-23T01:15:41.766Z,0.00
2019-05-23T01:16:41.760Z,0.00
2019-05-23T01:17:41.748Z,0.00
2019-05-23T01:18:41.755Z,0.00
2019-05-23T01:19:41.719Z,0.00
2019-05-23T01:20:41.719Z,0.00
2019-05-23T01:21:41.743Z,0.00
2019-05-23T01:22:41.691Z,0.00
2019-05-23T01:23:41.680Z,0.00
2019-05-23T01:24:41.664Z,0.00
2019-05-23T01:25:41.675Z,0.00
2019-05-23T01:26:41.660Z,0.00
2019-05-23T01:27:41.659Z,0.00
2019-05-23T01:28:41.630Z,0.00
2019-05-23T01:29:41.608Z,0.00
2019-05-23T01:30:41.611Z,0.00
2019-05-23T01:31:41.653Z,0.00
2019-05-23T01:32:41.614Z,0.00
2019-05-23T01:33:41.590Z,0.00
2019-05-23T01:34:41.560Z,0.00
2019-05-23T01:35:41.562Z,0.00
2019-05-23T01:36:41.539Z,0.00
2019-05-23T01:37:41.540Z,0.00
2019-05-23T01:38:41.575Z,0.00
2019-05-23T01:39:41.516Z,0.00
2019-05-23T01:40:41.512Z,0.00
2019-05-23T01:41:41.503Z,0.00
2019-05-23T01:42:41.474Z,0.00
2019-05-23T01:43:41.489Z,0.00
2019-05-23T01:44:41.461Z,0.00
2019-05-23T01:45:41.453Z,0.00
2019-05-23T01:46:41.429Z,0.00
2019-05-23T01:47:41.415Z,0.00
2019-05-23T01:48:41.405Z,0.00
2019-05-23T01:49:41.415Z,0.00
2019-05-23T01:50:41.398Z,0.00
2019-05-23T01:51:41.366Z,0.00
2019-05-23T01:52:41.381Z,0.00
2019-05-23T01:53:41.345Z,0.00
2019-05-23T01:54:41.380Z,0.00
2019-05-23T01:55:41.343Z,0.00
2019-05-23T01:56:41.316Z,0.00
2019-05-23T01:57:41.307Z,0.00
2019-05-23T01:58:41.298Z,0.00
2019-05-23T01:59:41.327Z,0.00
2019-05-23T02:00:41.279Z,0.00
2019-05-23T02:01:41.280Z,0.00
2019-05-23T02:02:41.269Z,0.00
2019-05-23T02:03:41.244Z,0.00
2019-05-23T02:04:41.240Z,0.00
2019-05-23T02:05:41.242Z,0.00
2019-05-23T02:06:41.225Z,0.00
2019-05-23T02:07:41.205Z,0.00
2019-05-23T02:08:41.291Z,0.00
2019-05-23T02:09:41.199Z,0.00
2019-05-23T02:10:41.206Z,0.00
2019-05-23T02:11:41.171Z,0.00
2019-05-23T02:12:41.157Z,0.00
2019-05-23T02:13:41.136Z,0.00
2019-05-23T02:14:41.139Z,0.00
2019-05-23T02:15:41.125Z,0.00
2019-05-23T02:16:41.139Z,0.00
2019-05-23T02:17:41.097Z,0.00
2019-05-23T02:18:41.095Z,0.00
2019-05-23T02:19:41.098Z,0.00
2019-05-23T02:20:41.084Z,0.00
2019-05-23T02:21:41.054Z,0.00
2019-05-23T02:22:41.046Z,0.00
2019-05-23T02:23:41.032Z,0.00
2019-05-23T02:24:41.025Z,0.00
2019-05-23T02:25:41.038Z,0.00
2019-05-23T02:26:41.081Z,0.00
2019-05-23T02:27:40.985Z,0.00
2019-05-23T02:28:40.981Z,0.00
2019-05-23T02:29:40.971Z,0.00
2019-05-23T02:30:40.978Z,0.00
2019-05-23T02:31:40.953Z,0.00
2019-05-23T02:32:40.960Z,0.00
2019-05-23T02:33:40.960Z,0.00
2019-05-23T02:34:40.944Z,0.00
2019-05-23T02:35:40.942Z,0.00
2019-05-23T02:36:40.894Z,0.00
2019-05-23T02:37:40.894Z,0.00
2019-05-23T02:38:40.881Z,0.00
2019-05-23T02:39:40.875Z,0.00
2019-05-23T02:40:40.887Z,0.00
2019-05-23T02:41:40.844Z,0.00
2019-05-23T02:42:40.837Z,0.00
2019-05-23T02:43:40.827Z,0.00
2019-05-23T02:44:40.802Z,0.00
2019-05-23T02:45:40.823Z,0.00
2019-05-23T02:46:40.793Z,0.00
2019-05-23T02:47:40.774Z,0.00
2019-05-23T02:48:40.776Z,0.00
2019-05-23T02:49:40.771Z,0.00
2019-05-23T02:50:40.761Z,0.00
2019-05-23T02:51:40.734Z,0.00
2019-05-23T02:52:40.731Z,0.00
2019-05-23T02:53:40.744Z,0.00
2019-05-23T02:54:40.692Z,0.00
2019-05-23T02:55:40.721Z,0.00
2019-05-23T02:56:40.674Z,0.00
2019-05-23T02:57:40.677Z,0.00
2019-05-23T02:58:40.662Z,0.00
2019-05-23T02:59:40.643Z,0.00
2019-05-23T03:00:53.195Z,0.00
2019-05-23T03:01:41.653Z,0.00
2019-05-23T03:02:40.625Z,0.00
2019-05-23T03:03:40.618Z,0.00
2019-05-23T03:04:40.593Z,0.00
2019-05-23T03:05:40.601Z,0.00
2019-05-23T03:06:40.572Z,0.00
2019-05-23T03:07:40.621Z,0.00
2019-05-23T03:08:40.563Z,0.00
2019-05-23T03:09:40.540Z,0.00
2019-05-23T03:10:40.542Z,0.00
2019-05-23T03:11:40.520Z,0.00
2019-05-23T03:12:40.550Z,0.00
2019-05-23T03:13:40.494Z,0.00
2019-05-23T03:14:40.490Z,0.00
2019-05-23T03:15:40.494Z,0.00
2019-05-23T03:16:40.488Z,0.00
2019-05-23T03:17:40.478Z,0.00
2019-05-23T03:18:40.479Z,0.00
2019-05-23T03:19:40.428Z,5.62
2019-05-23T03:20:40.433Z,5.62
2019-05-23T03:21:40.405Z,5.62
2019-05-23T03:22:40.408Z,5.62
2019-05-23T03:23:40.418Z,5.62
2019-05-23T03:24:40.411Z,5.62
2019-05-23T03:25:40.359Z,5.62
2019-05-23T03:26:40.362Z,5.62
2019-05-23T03:27:40.348Z,5.62
2019-05-23T03:28:40.370Z,11.25
2019-05-23T03:29:40.331Z,11.25
2019-05-23T03:30:40.386Z,11.25
2019-05-23T03:31:40.302Z,11.25
2019-05-23T03:32:40.296Z,11.25
2019-05-23T03:33:40.296Z,11.25
2019-05-23T03:34:40.261Z,16.88
2019-05-23T03:35:40.270Z,16.88
2019-05-23T03:36:40.250Z,16.88
2019-05-23T03:37:40.249Z,16.88
2019-05-23T03:38:40.269Z,22.50
2019-05-23T03:39:40.237Z,22.50
2019-05-23T03:40:40.284Z,22.50
2019-05-23T03:41:40.264Z,22.50
2019-05-23T03:42:40.191Z,28.12
2019-05-23T03:43:40.169Z,28.12
2019-05-23T03:44:40.202Z,28.12
2019-05-23T03:45:40.382Z,28.12
2019-05-23T03:46:40.143Z,33.75
2019-05-23T03:47:40.135Z,33.75
2019-05-23T03:48:40.107Z,33.75
2019-05-23T03:49:40.109Z,39.38
2019-05-23T03:50:40.142Z,39.38
2019-05-23T03:51:40.085Z,45.00
2019-05-23T03:52:41.432Z,45.00
2019-05-23T03:53:40.875Z,45.00
2019-05-23T03:54:40.343Z,50.62
2019-05-23T03:55:40.924Z,50.62
2019-05-23T03:56:41.037Z,50.62
2019-05-23T03:57:40.128Z,56.25
2019-05-23T03:58:40.125Z,56.25
2019-05-23T03:59:40.262Z,61.88
2019-05-23T04:00:40.190Z,61.88
2019-05-23T04:01:47.935Z,67.50
2019-05-23T04:02:41.083Z,67.50
2019-05-23T04:03:40.699Z,73.12
2019-05-23T04:04:40.256Z,73.12
2019-05-23T04:05:40.184Z,73.12
2019-05-23T04:06:40.109Z,78.75
2019-05-23T04:07:40.136Z,78.75
2019-05-23T04:08:40.257Z,84.38
2019-05-23T04:09:39.909Z,90.00
2019-05-23T04:10:39.923Z,90.00
2019-05-23T04:11:39.909Z,95.62
2019-05-23T04:12:39.900Z,95.62
2019-05-23T04:13:39.864Z,101.25
2019-05-23T04:14:39.850Z,101.25
2019-05-23T04:15:39.820Z,106.88
2019-05-23T04:16:39.819Z,106.88
2019-05-23T04:17:39.794Z,106.88
2019-05-23T04:18:39.828Z,112.50
2019-05-23T04:19:39.821Z,112.50
2019-05-23T04:20:39.761Z,118.12
2019-05-23T04:21:39.767Z,118.12
2019-05-23T04:22:39.773Z,118.12
2019-05-23T04:23:39.745Z,123.75
2019-05-23T04:24:39.759Z,123.75
2019-05-23T04:25:39.709Z,123.75
2019-05-23T04:26:39.702Z,123.75
2019-05-23T04:27:39.689Z,123.75
2019-05-23T04:28:39.703Z,129.38
2019-05-23T04:29:39.692Z,135.00
2019-05-23T04:30:39.661Z,135.00
2019-05-23T04:31:39.666Z,135.00
2019-05-23T04:32:39.654Z,140.62
2019-05-23T04:33:39.658Z,140.62
2019-05-23T04:34:39.649Z,146.25
2019-05-23T04:35:39.603Z,146.25
2019-05-23T04:36:39.609Z,146.25
2019-05-23T04:37:39.583Z,151.88
2019-05-23T04:38:39.572Z,151.88
2019-05-23T04:39:39.644Z,151.88
2019-05-23T04:40:39.603Z,157.50
2019-05-23T04:41:39.586Z,163.12
2019-05-23T04:42:39.573Z,163.12
2019-05-23T04:43:39.543Z,168.75
2019-05-23T04:44:43.706Z,174.38
2019-05-23T04:45:40.557Z,180.00
2019-05-23T04:46:39.492Z,185.62
2019-05-23T04:47:39.507Z,185.62
2019-05-23T04:48:39.473Z,185.62
2019-05-23T04:49:39.470Z,185.62
2019-05-23T04:50:39.473Z,191.25
2019-05-23T04:51:39.453Z,196.88
2019-05-23T04:52:39.431Z,202.50
2019-05-23T04:53:39.440Z,208.12
2019-05-23T04:54:39.419Z,202.50
2019-05-23T04:55:39.417Z,208.12
2019-05-23T04:56:39.455Z,208.12
2019-05-23T04:57:39.395Z,213.75
2019-05-23T04:58:39.392Z,213.75
2019-05-23T04:59:39.373Z,213.75
2019-05-23T05:00:39.369Z,213.75
2019-05-23T05:01:39.353Z,213.75
2019-05-23T05:02:39.314Z,208.12
2019-05-23T05:03:40.688Z,208.12
2019-05-23T05:04:43.522Z,213.75
2019-05-23T05:05:40.212Z,219.38
2019-05-23T05:06:39.869Z,225.00
2019-05-23T05:07:39.670Z,230.62
2019-05-23T05:08:39.272Z,230.62
2019-05-23T05:09:39.268Z,230.62
2019-05-23T05:10:39.246Z,230.62
2019-05-23T05:11:39.237Z,230.62
2019-05-23T05:12:39.228Z,236.25
2019-05-23T05:13:39.310Z,236.25
2019-05-23T05:14:39.189Z,241.88
2019-05-23T05:15:39.179Z,241.88
2019-05-23T05:16:39.192Z,241.88
2019-05-23T05:17:39.157Z,241.88
2019-05-23T05:18:39.422Z,241.88
2019-05-23T05:19:39.128Z,236.25
2019-05-23T05:20:39.144Z,247.50
2019-05-23T05:21:39.174Z,247.50
2019-05-23T05:22:39.145Z,247.50
2019-05-23T05:23:39.109Z,253.12
2019-05-23T05:24:40.273Z,258.75
2019-05-23T05:25:39.080Z,264.38
2019-05-23T05:26:39.089Z,275.62
2019-05-23T05:27:39.129Z,298.12
2019-05-23T05:28:39.054Z,309.38
2019-05-23T05:29:39.057Z,315.00
2019-05-23T05:30:39.054Z,331.88
2019-05-23T05:31:39.022Z,343.12
2019-05-23T05:32:45.000Z,343.12
2019-05-23T05:33:39.996Z,337.50
2019-05-23T05:34:39.012Z,343.12
2019-05-23T05:35:38.976Z,320.62
2019-05-23T05:36:38.977Z,303.75
2019-05-23T05:37:39.006Z,286.88
2019-05-23T05:38:38.996Z,286.88
2019-05-23T05:39:38.999Z,286.88
2019-05-23T05:40:38.960Z,292.50
2019-05-23T05:41:38.912Z,286.88
2019-05-23T05:42:38.890Z,281.25
2019-05-23T05:43:38.925Z,275.62
2019-05-23T05:44:38.893Z,281.25
2019-05-23T05:45:38.856Z,298.12
2019-05-23T05:46:38.838Z,292.50
2019-05-23T05:47:38.865Z,292.50
2019-05-23T05:48:38.881Z,292.50
2019-05-23T05:49:42.084Z,286.88
2019-05-23T05:50:38.828Z,275.62
2019-05-23T05:51:38.836Z,275.62
2019-05-23T05:52:38.797Z,275.62
2019-05-23T05:53:38.777Z,275.62
2019-05-23T05:54:38.775Z,275.62
2019-05-23T05:55:38.800Z,275.62
2019-05-23T05:56:38.757Z,281.25
2019-05-23T05:57:38.780Z,281.25
2019-05-23T05:58:38.733Z,281.25
2019-05-23T05:59:38.709Z,292.50
2019-05-23T06:00:38.883Z,292.50
2019-05-23T06:01:38.685Z,303.75
2019-05-23T06:02:38.698Z,309.38
2019-05-23T06:03:38.683Z,315.00
2019-05-23T06:04:38.707Z,315.00
2019-05-23T06:05:38.655Z,315.00
2019-05-23T06:06:38.666Z,315.00
2019-05-23T06:07:38.663Z,315.00
2019-05-23T06:08:38.637Z,326.25
2019-05-23T06:09:38.638Z,320.62
2019-05-23T06:10:38.618Z,320.62
2019-05-23T06:11:38.572Z,326.25
2019-05-23T06:12:38.657Z,326.25
2019-05-23T06:13:38.539Z,326.25
2019-05-23T06:14:38.556Z,331.88
2019-05-23T06:15:38.561Z,326.25
2019-05-23T06:16:38.533Z,326.25
2019-05-23T06:17:38.577Z,331.88
2019-05-23T06:18:38.507Z,337.50
2019-05-23T06:19:38.489Z,331.88
2019-05-23T06:20:40.722Z,320.62
2019-05-23T06:21:38.477Z,326.25
2019-05-23T06:22:38.457Z,348.75
2019-05-23T06:23:38.499Z,343.12
2019-05-23T06:24:47.246Z,343.12
2019-05-23T06:25:39.435Z,343.12
2019-05-23T06:26:38.407Z,343.12
2019-05-23T06:27:38.450Z,343.12
2019-05-23T06:28:38.393Z,343.12
2019-05-23T06:29:38.417Z,331.88
2019-05-23T06:30:38.377Z,331.88
2019-05-23T06:31:38.386Z,343.12
2019-05-23T06:32:38.385Z,343.12
2019-05-23T06:33:38.362Z,348.75
2019-05-23T06:34:38.387Z,343.12
2019-05-23T06:35:38.334Z,343.12
2019-05-23T06:36:38.309Z,354.38
2019-05-23T06:37:38.334Z,360.00
2019-05-23T06:38:38.287Z,360.00
2019-05-23T06:39:38.290Z,354.38
2019-05-23T06:40:38.317Z,354.38
2019-05-23T06:41:38.263Z,360.00
2019-05-23T06:42:38.265Z,360.00
2019-05-23T06:43:38.294Z,360.00
2019-05-23T06:44:38.245Z,360.00
2019-05-23T06:45:38.236Z,348.75
2019-05-23T06:46:38.273Z,348.75
2019-05-23T06:47:38.183Z,354.38
2019-05-23T06:48:38.159Z,360.00
2019-05-23T06:49:38.199Z,348.75
2019-05-23T06:50:38.156Z,354.38
2019-05-23T06:51:38.183Z,354.38
2019-05-23T06:52:38.163Z,360.00
2019-05-23T06:53:38.122Z,348.75
2019-05-23T06:54:38.116Z,360.00
2019-05-23T06:55:38.199Z,365.62
2019-05-23T06:56:38.095Z,376.88
2019-05-23T06:57:38.110Z,376.88
2019-05-23T06:58:38.101Z,376.88
2019-05-23T06:59:38.065Z,371.25
2019-05-23T07:00:38.098Z,376.88
2019-05-23T07:01:38.062Z,382.50
2019-05-23T07:02:38.146Z,388.12
2019-05-23T07:03:42.909Z,388.12
2019-05-23T07:04:39.029Z,393.75
2019-05-23T07:05:37.987Z,382.50
2019-05-23T07:06:37.983Z,376.88
2019-05-23T07:07:38.065Z,382.50
2019-05-23T07:08:37.975Z,382.50
2019-05-23T07:09:37.973Z,382.50
2019-05-23T07:10:37.932Z,393.75
2019-05-23T07:11:38.020Z,399.38
2019-05-23T07:12:37.927Z,399.38
2019-05-23T07:13:37.922Z,399.38
2019-05-23T07:14:37.936Z,376.88
2019-05-23T07:15:37.905Z,399.38
2019-05-23T07:16:37.884Z,382.50
2019-05-23T07:17:37.874Z,405.00
2019-05-23T07:18:37.873Z,416.25
2019-05-23T07:19:37.848Z,410.62
2019-05-23T07:20:37.836Z,405.00
2019-05-23T07:21:37.839Z,405.00
2019-05-23T07:22:37.825Z,405.00
2019-05-23T07:23:37.990Z,410.62
2019-05-23T07:24:37.821Z,405.00
2019-05-23T07:25:37.803Z,399.38
2019-05-23T07:26:37.780Z,393.75
2019-05-23T07:27:37.765Z,393.75
2019-05-23T07:28:37.798Z,405.00
2019-05-23T07:29:37.824Z,410.62
2019-05-23T07:30:37.739Z,433.12
2019-05-23T07:31:37.726Z,421.88
2019-05-23T07:32:37.856Z,421.88
2019-05-23T07:33:37.725Z,421.88
2019-05-23T07:34:37.719Z,433.12
2019-05-23T07:35:37.666Z,433.12
2019-05-23T07:36:37.666Z,427.50
2019-05-23T07:37:37.677Z,433.12
2019-05-23T07:38:37.681Z,427.50
2019-05-23T07:39:37.647Z,427.50
2019-05-23T07:40:37.654Z,433.12
2019-05-23T07:41:37.602Z,427.50
2019-05-23T07:42:37.582Z,444.38
2019-05-23T07:43:37.578Z,427.50
2019-05-23T07:44:48.053Z,427.50
2019-05-23T07:45:39.842Z,416.25
2019-05-23T07:46:37.592Z,421.88
2019-05-23T07:47:40.061Z,416.25
2019-05-23T07:48:37.531Z,433.12
2019-05-23T07:49:37.556Z,421.88
2019-05-23T07:50:37.525Z,421.88
2019-05-23T07:51:37.524Z,421.88
2019-05-23T07:52:37.540Z,416.25
2019-05-23T07:53:37.561Z,421.88
2019-05-23T07:54:37.479Z,433.12
2019-05-23T07:55:37.474Z,438.75
2019-05-23T07:56:37.485Z,444.38
2019-05-23T07:57:37.435Z,450.00
2019-05-23T07:58:37.434Z,461.25
2019-05-23T07:59:37.415Z,461.25
2019-05-23T08:00:37.412Z,461.25
2019-05-23T08:01:37.403Z,466.88
2019-05-23T08:02:37.449Z,461.25
2019-05-23T08:03:37.365Z,455.62
2019-05-23T08:04:37.367Z,450.00
2019-05-23T08:05:37.394Z,455.62
2019-05-23T08:06:37.366Z,455.62
2019-05-23T08:07:37.333Z,455.62
2019-05-23T08:08:37.349Z,466.88
2019-05-23T08:09:37.308Z,483.75
2019-05-23T08:10:37.317Z,551.25
2019-05-23T08:11:37.280Z,618.75
2019-05-23T08:12:37.307Z,624.38
2019-05-23T08:13:37.273Z,703.12
2019-05-23T08:14:37.324Z,1046.25
2019-05-23T08:15:37.253Z,1715.62
2019-05-23T08:16:37.255Z,2362.50
2019-05-23T08:17:37.218Z,2643.75
2019-05-23T08:18:37.261Z,2626.88
2019-05-23T08:19:48.917Z,2733.75
2019-05-23T08:20:38.203Z,2711.25
2019-05-23T08:21:37.206Z,2756.25
2019-05-23T08:22:37.183Z,2745.00
2019-05-23T08:23:37.169Z,2773.12
2019-05-23T08:24:37.161Z,2728.12
2019-05-23T08:25:37.158Z,2756.25
2019-05-23T08:26:37.120Z,2885.62
2019-05-23T08:27:37.119Z,2941.88
2019-05-23T08:28:37.139Z,2880.00
2019-05-23T08:29:38.088Z,2851.88
2019-05-23T08:30:37.082Z,2941.88
2019-05-23T08:31:37.098Z,2975.62
2019-05-23T08:32:37.165Z,2970.00
2019-05-23T08:33:37.031Z,2812.50
2019-05-23T08:34:42.144Z,2531.25
2019-05-23T08:35:38.033Z,2587.50
2019-05-23T08:36:37.031Z,2840.62
2019-05-23T08:37:37.027Z,2846.25
2019-05-23T08:38:36.984Z,2812.50
2019-05-23T08:39:37.036Z,2930.62
2019-05-23T08:40:36.982Z,2857.50
2019-05-23T08:41:36.983Z,2896.88
2019-05-23T08:42:36.963Z,2958.75
2019-05-23T08:43:36.935Z,2868.75
2019-05-23T08:44:36.938Z,2835.00
2019-05-23T08:45:37.059Z,2857.50
2019-05-23T08:46:36.906Z,2970.00
2019-05-23T08:47:36.911Z,3026.25
2019-05-23T08:48:36.895Z,3026.25
2019-05-23T08:49:36.925Z,2896.88
2019-05-23T08:50:36.930Z,2930.62
2019-05-23T08:51:36.869Z,2941.88
2019-05-23T08:52:36.856Z,2908.12
2019-05-23T08:53:36.825Z,2896.88
2019-05-23T08:54:36.837Z,2947.50
2019-05-23T08:55:36.824Z,3015.00
2019-05-23T08:56:36.893Z,3054.38
2019-05-23T08:57:36.818Z,3110.62
2019-05-23T08:58:36.799Z,3031.88
2019-05-23T08:59:36.781Z,3088.12
2019-05-23T09:00:36.754Z,3150.00
2019-05-23T09:01:37.348Z,3195.00
2019-05-23T09:02:36.748Z,3245.62
2019-05-23T09:03:36.754Z,3127.50
2019-05-23T09:04:36.727Z,3121.88
2019-05-23T09:05:36.725Z,3116.25
2019-05-23T09:06:36.729Z,3088.12
2019-05-23T09:07:36.686Z,3144.38
2019-05-23T09:08:36.711Z,3223.12
2019-05-23T09:09:36.668Z,3273.75
2019-05-23T09:10:36.654Z,3256.88
2019-05-23T09:11:36.678Z,3313.12
2019-05-23T09:12:36.679Z,3408.75
2019-05-23T09:13:36.628Z,3408.75
2019-05-23T09:14:36.618Z,3510.00
2019-05-23T09:15:36.618Z,3470.62
2019-05-23T09:16:36.611Z,3414.38
2019-05-23T09:17:54.635Z,3256.88
2019-05-23T09:18:36.566Z,1434.38
2019-05-23T09:19:36.599Z,3285.00
2019-05-23T09:20:36.567Z,3346.88
2019-05-23T09:21:36.583Z,3380.62
2019-05-23T09:22:36.563Z,3363.75
2019-05-23T09:23:36.560Z,3285.00
2019-05-23T09:24:36.577Z,3228.75
2019-05-23T09:25:36.513Z,3155.62
2019-05-23T09:26:36.488Z,3217.50
2019-05-23T09:27:36.490Z,3217.50
2019-05-23T09:28:36.493Z,3110.62
2019-05-23T09:29:36.481Z,3189.38
2019-05-23T09:30:36.468Z,3296.25
2019-05-23T09:31:36.448Z,3127.50
2019-05-23T09:32:36.446Z,1901.25
2019-05-23T09:33:36.463Z,3138.75
2019-05-23T09:34:36.463Z,3386.25
2019-05-23T09:35:36.430Z,3341.25
2019-05-23T09:36:36.421Z,3313.12
2019-05-23T09:37:36.395Z,3346.88
2019-05-23T09:38:36.426Z,3403.12
2019-05-23T09:39:36.379Z,3273.75
2019-05-23T09:40:36.410Z,3071.25
2019-05-23T09:41:36.386Z,2964.38
2019-05-23T09:42:36.363Z,3048.75
2019-05-23T09:43:36.322Z,3223.12
2019-05-23T09:44:36.345Z,3273.75
2019-05-23T09:45:36.301Z,3296.25
2019-05-23T09:46:36.293Z,3195.00
2019-05-23T09:47:36.308Z,1260.00
2019-05-23T09:48:36.275Z,3127.50
2019-05-23T09:49:36.267Z,3330.00
2019-05-23T09:50:36.274Z,3386.25
2019-05-23T09:51:36.253Z,3397.50
2019-05-23T09:52:36.249Z,3493.12
2019-05-23T09:53:36.255Z,3391.88
2019-05-23T09:54:36.244Z,3060.00
2019-05-23T09:55:36.209Z,3189.38
2019-05-23T09:56:36.177Z,3189.38
2019-05-23T09:57:36.172Z,3195.00
2019-05-23T09:58:36.173Z,3442.50
2019-05-23T09:59:36.199Z,3346.88
2019-05-23T10:00:36.188Z,3234.38
2019-05-23T10:01:36.166Z,3200.62
2019-05-23T10:02:36.138Z,2919.38
2019-05-23T10:03:36.136Z,3088.12
2019-05-23T10:04:36.113Z,1642.50
2019-05-23T10:05:43.449Z,3442.50
2019-05-23T10:06:37.076Z,3251.25
2019-05-23T10:07:36.079Z,3290.62
2019-05-23T10:08:36.075Z,2182.50
2019-05-23T10:09:36.084Z,3178.12
2019-05-23T10:10:36.069Z,1518.75
2019-05-23T10:11:36.065Z,1068.75
2019-05-23T10:12:36.061Z,1029.38
2019-05-23T10:13:39.418Z,1023.75
2019-05-23T10:14:35.992Z,1153.12
2019-05-23T10:15:36.003Z,1102.50
2019-05-23T10:16:36.007Z,1051.88
2019-05-23T10:17:35.990Z,1029.38
2019-05-23T10:18:35.959Z,1012.50
2019-05-23T10:19:35.947Z,995.62
2019-05-23T10:20:35.946Z,978.75
2019-05-23T10:21:35.984Z,961.88
2019-05-23T10:22:35.921Z,961.88
2019-05-23T10:23:35.922Z,956.25
2019-05-23T10:24:35.969Z,961.88
2019-05-23T10:25:35.920Z,967.50
2019-05-23T10:26:35.883Z,973.12
2019-05-23T10:27:35.896Z,984.38
2019-05-23T10:28:35.862Z,1001.25
2019-05-23T10:29:35.847Z,1012.50
2019-05-23T10:30:35.880Z,1029.38
2019-05-23T10:31:35.819Z,1035.00
2019-05-23T10:32:35.842Z,1029.38
2019-05-23T10:33:35.800Z,1040.62
2019-05-23T10:34:35.801Z,950.62
2019-05-23T10:35:35.790Z,961.88
2019-05-23T10:36:35.800Z,1040.62
2019-05-23T10:37:35.779Z,1091.25
2019-05-23T10:38:36.227Z,1085.62
2019-05-23T10:39:35.778Z,1063.12
2019-05-23T10:40:35.741Z,1063.12
2019-05-23T10:41:35.770Z,967.50
2019-05-23T10:42:35.745Z,967.50
2019-05-23T10:43:35.719Z,1074.38
2019-05-23T10:44:35.686Z,1271.25
2019-05-23T10:45:35.695Z,1310.62
2019-05-23T10:46:35.689Z,1434.38
2019-05-23T10:47:35.669Z,1777.50
2019-05-23T10:48:35.674Z,2497.50
2019-05-23T10:49:35.680Z,3015.00
2019-05-23T10:50:44.147Z,1130.62
2019-05-23T10:51:36.643Z,1012.50
2019-05-23T10:52:35.591Z,1085.62
2019-05-23T10:53:35.599Z,1147.50
2019-05-23T10:54:35.599Z,1051.88
2019-05-23T10:55:35.582Z,1023.75
2019-05-23T10:57:04.735Z,1085.62
2019-05-23T10:57:42.447Z,1299.38
2019-05-23T10:58:36.698Z,3864.38
2019-05-23T10:59:35.572Z,1400.62
2019-05-23T11:00:35.524Z,3566.25
2019-05-23T11:01:35.523Z,3999.38
2019-05-23T11:02:35.512Z,1243.12
2019-05-23T11:03:35.489Z,1175.62
2019-05-23T11:04:35.489Z,3915.00
2019-05-23T11:05:35.477Z,1209.38
2019-05-23T11:06:35.447Z,2171.25
2019-05-23T11:07:35.471Z,3886.88
2019-05-23T11:08:35.433Z,3808.12
2019-05-23T11:09:38.204Z,3633.75
2019-05-23T11:10:35.443Z,3538.12
2019-05-23T11:11:35.432Z,3538.12
2019-05-23T11:12:35.399Z,3791.25
2019-05-23T11:13:35.399Z,3965.62
2019-05-23T11:14:35.441Z,3746.25
2019-05-23T11:15:35.379Z,3813.75
2019-05-23T11:16:35.357Z,3909.38
2019-05-23T11:17:35.387Z,4100.62
2019-05-23T11:18:35.351Z,4010.62
2019-05-23T11:19:35.593Z,3178.12
2019-05-23T11:20:36.162Z,2238.75
2019-05-23T11:21:35.299Z,1271.25
2019-05-23T11:22:35.293Z,3751.88
2019-05-23T11:23:35.316Z,3768.75
2019-05-23T11:24:35.278Z,3853.12
2019-05-23T11:25:35.273Z,3943.12
2019-05-23T11:26:35.275Z,3960.00
2019-05-23T11:27:35.233Z,3886.88
2019-05-23T11:28:35.259Z,3774.38
2019-05-23T11:29:35.213Z,3926.25
2019-05-23T11:30:35.224Z,4089.38
2019-05-23T11:31:35.299Z,3960.00
2019-05-23T11:32:35.196Z,3836.25
2019-05-23T11:33:35.196Z,3813.75
2019-05-23T11:34:35.174Z,3594.38
2019-05-23T11:35:35.197Z,3757.50
2019-05-23T11:36:36.705Z,3690.00
2019-05-23T11:37:35.186Z,3476.25
2019-05-23T11:38:35.134Z,3386.25
2019-05-23T11:39:42.102Z,3543.75
2019-05-23T11:40:36.109Z,3909.38
2019-05-23T11:41:35.121Z,3616.88
2019-05-23T11:42:35.147Z,3836.25
2019-05-23T11:43:35.087Z,3459.38
2019-05-23T11:44:35.097Z,3465.00
2019-05-23T11:45:35.103Z,3639.38
2019-05-23T11:46:35.051Z,3836.25
2019-05-23T11:47:35.073Z,3712.50
2019-05-23T11:48:35.041Z,3543.75
2019-05-23T11:49:35.025Z,3403.12
2019-05-23T11:50:35.018Z,3369.38
2019-05-23T11:51:35.000Z,3330.00
2019-05-23T11:52:35.010Z,3031.88
2019-05-23T11:53:35.011Z,3380.62
2019-05-23T11:54:34.981Z,3195.00
2019-05-23T11:55:34.973Z,3375.00
2019-05-23T11:56:34.988Z,1586.25
2019-05-23T11:57:37.565Z,1479.38
2019-05-23T11:58:34.990Z,2559.38
2019-05-23T11:59:34.944Z,2278.12
2019-05-23T12:00:34.920Z,2660.62
2019-05-23T12:01:34.919Z,3144.38
2019-05-23T12:02:34.912Z,3403.12
2019-05-23T12:03:34.905Z,3622.50
2019-05-23T12:04:34.892Z,3611.25
2019-05-23T12:05:34.876Z,3245.62
2019-05-23T12:06:51.735Z,3515.62
2019-05-23T12:07:35.846Z,3459.38
2019-05-23T12:08:34.827Z,3262.50
2019-05-23T12:09:34.854Z,3465.00
2019-05-23T12:10:34.821Z,3200.62
2019-05-23T12:11:38.181Z,3442.50
2019-05-23T12:12:35.828Z,3555.00
2019-05-23T12:14:12.764Z,3386.25
2019-05-23T12:14:37.255Z,3751.88
2019-05-23T12:16:00.673Z,4033.12
2019-05-23T12:16:37.522Z,4123.12
2019-05-23T12:17:56.726Z,3920.62
2019-05-23T12:18:35.102Z,3926.25
2019-05-23T12:19:35.265Z,3808.12
2019-05-23T12:20:35.032Z,3341.25
2019-05-23T12:21:36.090Z,3150.00
2019-05-23T12:22:35.151Z,3290.62
2019-05-23T12:23:35.318Z,3330.00
2019-05-23T12:24:35.932Z,3847.50
2019-05-23T12:25:34.958Z,3037.50
2019-05-23T12:26:34.745Z,3543.75
2019-05-23T12:27:36.638Z,1586.25
2019-05-23T12:28:34.643Z,2345.62
2019-05-23T12:29:34.632Z,1738.12
2019-05-23T12:30:35.955Z,1850.62
2019-05-23T12:31:34.614Z,1406.25
2019-05-23T12:32:34.615Z,2306.25
2019-05-23T12:33:34.576Z,2880.00
2019-05-23T12:34:34.590Z,1642.50
2019-05-23T12:35:34.560Z,1715.62